首页
METAR-TAF:

METAR-TAF

机场 :

莱利斯塔德, 荷兰

纬度: 52-27-37N, 经度: 005-31-38E, 海拔: -4米

当前天气观测

该预报发布于41分钟前的05:25 UTC
风速10节,风向西转西南
温度 7°C
湿度 93%
气压 1013 hPa
能見度: 9000
少量云层高于900英尺
多云层高于1000英尺
多云层高于1500英尺, 积雨云.
小阵雨

METAR: EHLE 230525Z AUTO 25010KT 9000 -SHRA FEW009 BKN010 BKN015CB 07/06 Q1013

时间: 07:06 (06:06 UTC)

预报

该预报发布于11分钟前的05:55 UTC
预报有效从23日的 06点(UTC)到 24日的 12点(UTC)
风速10节,风向南转西南
能見度: 7000
散云层高于800英尺
多云层高于2000英尺
成为
从 23日的 06点(UTC)到 23日的 09点(UTC)
风速8节,风向
能見度: 4000
多云层高于1200英尺
成为
从 23日的 09点(UTC)到 23日的 10点(UTC)
风速28节,风向西转西南,有时为42节阵风
短暂存在
从 23日的 09点(UTC)到 23日的 12点(UTC)
能見度: 2500
多云层高于600英尺
阴天层高于1200英尺
大雨
成为
从 23日的 12点(UTC)到 23日的 15点(UTC)
风速20节,风向西转西北,有时为32节阵风
能见度10公里或以上
成为
从 23日的 15点(UTC)到 23日的 18点(UTC)
风速16节,风向西转西北
散云层高于3000英尺
几率 40% :
短暂存在
从 23日的 15点(UTC)到 23日的 18点(UTC)
能見度: 7000
散云层高于2000英尺, 积雨云.
小阵雨
成为
从 23日的 21点(UTC)到 23日的 24点(UTC)
风速8节,风向西
成为
从 24日的 10点(UTC)到 24日的 12点(UTC)
风速15节,风向,有时为25节阵风
散云层高于700英尺
多云层高于1200英尺

TAF: EHLE 230555Z 2306/2412 21010KT 7000 RA SCT008 BKN020 BECMG 2306/2309 17008KT 4000 BKN012 BECMG 2309/2310 25028G42KT TEMPO 2309/2312 2500 +RA BKN006 OVC012 BECMG 2312/2315 29020G32KT 9999 NSW BECMG 2315/2318 29016KT SCT030 PROB40 TEMPO 2315/2318 7000 -SHRA SCT020CB BECMG 2321/2324 28008KT BECMG 2410/2412 18015G25KT SCT007 BKN012

超过4000个机场的气象观测和天气预报(METAR&TAF报告)。

可查询的气象台以黄色和红色小点在地图上表示。

将鼠标移到小点上方,可查看气象台名称。

然后点击查看天气观测和预报。

如需切换地图:点击带黑十字的绿色按钮放大地图;点击带横线的绿色按钮缩小地图;或者点击绿色箭头查看邻近地区的地图。


METAR-TAF: